JST193 YMML-YSSY
Flight info
| Callsign | JST193 |
|---|---|
| Flight time | 1h 7m |
| Altitude | 37000 |
| Route | ML H129 DOSEL Y59 RIVET |
| Aircraft | A320/M-SDE3FGHIRWY/LB1 |
Departure
| Time | 2026-04-25 11:48 |
|---|---|
| Airport | Melbourne Airport (YMML) |
Arrival
| Time | 2026-04-25 12:55 |
|---|---|
| Airport | Sydney Kingsford Smith International Airport (YSSY) |
| Time | Latitude | Longitude | Altitude | Speed | Heading |
|---|---|---|---|---|---|
| 2026-04-25 11:11 | -37.67064 | 144.84572 | 363 ft | 0 kts | 171° |
| 2026-04-25 11:11 | -37.67058 | 144.84622 | 359 ft | 0 kts | 172° |
| 2026-04-25 11:37 | -37.67050 | 144.84620 | 365 ft | 3 kts | 175° |
| 2026-04-25 11:37 | -37.67030 | 144.84621 | 360 ft | 3 kts | 194° |
| 2026-04-25 11:38 | -37.67013 | 144.84630 | 356 ft | 3 kts | 223° |
| 2026-04-25 11:38 | -37.67003 | 144.84646 | 358 ft | 2 kts | 258° |
| 2026-04-25 11:38 | -37.67001 | 144.84655 | 358 ft | 1 kts | 260° |
| 2026-04-25 11:42 | -37.67005 | 144.84629 | 362 ft | 5 kts | 260° |
| 2026-04-25 11:43 | -37.67009 | 144.84600 | 361 ft | 2 kts | 262° |
| 2026-04-25 11:43 | -37.67012 | 144.84571 | 359 ft | 10 kts | 262° |
| 2026-04-25 11:43 | -37.67020 | 144.84472 | 363 ft | 11 kts | 251° |
| 2026-04-25 11:43 | -37.67048 | 144.84389 | 366 ft | 10 kts | 261° |
| 2026-04-25 11:44 | -37.67058 | 144.84302 | 369 ft | 10 kts | 259° |
| 2026-04-25 11:44 | -37.67110 | 144.84251 | 369 ft | 11 kts | 183° |
| 2026-04-25 11:44 | -37.67202 | 144.84270 | 369 ft | 16 kts | 172° |
| 2026-04-25 11:44 | -37.67323 | 144.84294 | 369 ft | 20 kts | 170° |
| 2026-04-25 11:45 | -37.67477 | 144.84321 | 366 ft | 25 kts | 173° |
| 2026-04-25 11:45 | -37.67663 | 144.84355 | 360 ft | 30 kts | 171° |
| 2026-04-25 11:45 | -37.67882 | 144.84398 | 354 ft | 34 kts | 172° |
| 2026-04-25 11:45 | -37.68105 | 144.84438 | 346 ft | 32 kts | 171° |
| 2026-04-25 11:46 | -37.68300 | 144.84475 | 335 ft | 18 kts | 174° |
| 2026-04-25 11:46 | -37.68424 | 144.84407 | 333 ft | 16 kts | 219° |
| 2026-04-25 11:46 | -37.68500 | 144.84338 | 332 ft | 15 kts | 216° |
| 2026-04-25 11:46 | -37.68554 | 144.84213 | 333 ft | 18 kts | 266° |
| 2026-04-25 11:47 | -37.68545 | 144.84101 | 331 ft | 8 kts | 307° |
| 2026-04-25 11:47 | -37.68487 | 144.84081 | 332 ft | 11 kts | 351° |
| 2026-04-25 11:47 | -37.68247 | 144.84037 | 350 ft | 69 kts | 352° |
| 2026-04-25 11:47 | -37.67562 | 144.83909 | 363 ft | 127 kts | 352° |
| 2026-04-25 11:48 | -37.66577 | 144.83722 | 646 ft | 149 kts | 353° |
| 2026-04-25 11:48 | -37.65557 | 144.83542 | 1345 ft | 148 kts | 352° |
| 2026-04-25 11:48 | -37.64549 | 144.83357 | 2097 ft | 145 kts | 352° |
| 2026-04-25 11:48 | -37.63494 | 144.83154 | 2496 ft | 166 kts | 352° |
| 2026-04-25 11:49 | -37.62269 | 144.82933 | 2830 ft | 192 kts | 351° |
| 2026-04-25 11:49 | -37.60840 | 144.82690 | 3198 ft | 221 kts | 351° |
| 2026-04-25 11:49 | -37.59237 | 144.82502 | 3882 ft | 239 kts | 2° |
| 2026-04-25 11:49 | -37.57608 | 144.83146 | 4758 ft | 252 kts | 22° |
| 2026-04-25 11:50 | -37.55997 | 144.84138 | 5641 ft | 262 kts | 22° |
| 2026-04-25 11:50 | -37.54341 | 144.85184 | 6546 ft | 269 kts | 23° |
| 2026-04-25 11:50 | -37.52660 | 144.86272 | 7432 ft | 274 kts | 23° |
| 2026-04-25 11:50 | -37.50938 | 144.87337 | 8350 ft | 278 kts | 22° |
| 2026-04-25 11:51 | -37.49173 | 144.88389 | 9253 ft | 282 kts | 21° |
| 2026-04-25 11:51 | -37.47388 | 144.89443 | 10129 ft | 287 kts | 21° |
| 2026-04-25 11:51 | -37.45521 | 144.90570 | 10538 ft | 310 kts | 25° |
| 2026-04-25 11:51 | -37.43701 | 144.92181 | 10985 ft | 329 kts | 39° |
| 2026-04-25 11:52 | -37.42151 | 144.94357 | 11715 ft | 338 kts | 51° |
| 2026-04-25 11:52 | -37.40795 | 144.96794 | 12509 ft | 341 kts | 52° |
| 2026-04-25 11:52 | -37.39418 | 144.99245 | 13316 ft | 344 kts | 51° |
| 2026-04-25 11:52 | -37.38028 | 145.01704 | 14108 ft | 347 kts | 51° |
| 2026-04-25 11:53 | -37.36624 | 145.04179 | 14827 ft | 349 kts | 51° |
| 2026-04-25 11:53 | -37.35684 | 145.05833 | 15285 ft | 352 kts | 51° |
| 2026-04-25 11:53 | -37.34256 | 145.08343 | 15966 ft | 355 kts | 51° |
| 2026-04-25 11:53 | -37.32814 | 145.10879 | 16629 ft | 359 kts | 52° |
| 2026-04-25 11:54 | -37.30880 | 145.14279 | 17508 ft | 363 kts | 52° |
| 2026-04-25 11:54 | -37.29403 | 145.16876 | 18189 ft | 367 kts | 52° |
| 2026-04-25 11:54 | -37.26410 | 145.22144 | 19404 ft | 375 kts | 52° |
| 2026-04-25 11:55 | -37.24884 | 145.24832 | 19983 ft | 380 kts | 52° |
| 2026-04-25 11:55 | -37.23343 | 145.27543 | 20563 ft | 384 kts | 52° |
| 2026-04-25 11:55 | -37.21778 | 145.30291 | 21111 ft | 389 kts | 52° |
| 2026-04-25 11:55 | -37.20192 | 145.33071 | 21655 ft | 394 kts | 52° |
| 2026-04-25 11:56 | -37.19134 | 145.34923 | 22014 ft | 397 kts | 52° |
| 2026-04-25 11:56 | -37.17518 | 145.37752 | 22575 ft | 401 kts | 52° |
| 2026-04-25 11:56 | -37.15886 | 145.40605 | 23118 ft | 405 kts | 52° |
| 2026-04-25 11:56 | -37.14235 | 145.43490 | 23677 ft | 409 kts | 52° |
| 2026-04-25 11:57 | -37.12565 | 145.46404 | 24160 ft | 414 kts | 52° |
| 2026-04-25 11:57 | -37.10880 | 145.49345 | 24635 ft | 417 kts | 52° |
| 2026-04-25 11:57 | -37.09184 | 145.52307 | 25097 ft | 420 kts | 52° |
| 2026-04-25 11:57 | -37.07473 | 145.55292 | 25570 ft | 423 kts | 52° |
| 2026-04-25 11:58 | -37.05749 | 145.58288 | 26036 ft | 425 kts | 52° |
| 2026-04-25 11:58 | -37.04014 | 145.61297 | 26480 ft | 428 kts | 52° |
| 2026-04-25 11:58 | -37.02265 | 145.64329 | 26922 ft | 431 kts | 52° |
| 2026-04-25 11:58 | -37.00504 | 145.67383 | 27348 ft | 434 kts | 52° |
| 2026-04-25 11:59 | -36.98736 | 145.70449 | 27752 ft | 437 kts | 52° |
| 2026-04-25 11:59 | -36.96949 | 145.73545 | 28169 ft | 440 kts | 52° |
| 2026-04-25 11:59 | -36.95173 | 145.76616 | 28577 ft | 443 kts | 52° |
| 2026-04-25 12:00 | -36.91559 | 145.82850 | 29453 ft | 447 kts | 52° |
| 2026-04-25 12:00 | -36.89713 | 145.86033 | 29875 ft | 450 kts | 52° |
| 2026-04-25 12:00 | -36.86023 | 145.92390 | 30634 ft | 455 kts | 52° |
| 2026-04-25 12:01 | -36.84157 | 145.95605 | 30979 ft | 458 kts | 52° |
| 2026-04-25 12:01 | -36.82281 | 145.98829 | 31321 ft | 460 kts | 52° |
| 2026-04-25 12:01 | -36.80401 | 146.02055 | 31662 ft | 462 kts | 52° |
| 2026-04-25 12:01 | -36.78504 | 146.05306 | 32003 ft | 464 kts | 52° |
| 2026-04-25 12:02 | -36.74711 | 146.11813 | 32889 ft | 462 kts | 52° |
| 2026-04-25 12:02 | -36.72822 | 146.15044 | 33374 ft | 461 kts | 52° |
| 2026-04-25 12:02 | -36.70934 | 146.18263 | 33852 ft | 460 kts | 51° |
| 2026-04-25 12:03 | -36.69046 | 146.21479 | 34341 ft | 459 kts | 51° |
| 2026-04-25 12:03 | -36.67165 | 146.24682 | 34757 ft | 458 kts | 51° |
| 2026-04-25 12:03 | -36.65287 | 146.27878 | 35148 ft | 457 kts | 51° |
| 2026-04-25 12:03 | -36.63409 | 146.31076 | 35529 ft | 457 kts | 51° |
| 2026-04-25 12:04 | -36.61536 | 146.34269 | 35889 ft | 456 kts | 52° |
| 2026-04-25 12:04 | -36.59691 | 146.37410 | 36231 ft | 456 kts | 52° |
| 2026-04-25 12:04 | -36.57820 | 146.40591 | 36577 ft | 456 kts | 52° |
| 2026-04-25 12:04 | -36.55946 | 146.43774 | 36908 ft | 456 kts | 52° |
| 2026-04-25 12:05 | -36.54072 | 146.46945 | 37235 ft | 456 kts | 51° |
| 2026-04-25 12:05 | -36.52190 | 146.50125 | 37359 ft | 455 kts | 51° |
| 2026-04-25 12:05 | -36.48450 | 146.56434 | 37359 ft | 453 kts | 52° |
| 2026-04-25 12:06 | -36.44709 | 146.62744 | 37352 ft | 453 kts | 51° |
| 2026-04-25 12:06 | -36.40968 | 146.69044 | 37355 ft | 453 kts | 51° |
| 2026-04-25 12:07 | -36.37224 | 146.75341 | 37363 ft | 453 kts | 51° |
| 2026-04-25 12:07 | -36.33474 | 146.81626 | 37366 ft | 454 kts | 51° |
| 2026-04-25 12:08 | -36.29709 | 146.87915 | 37367 ft | 454 kts | 52° |
| 2026-04-25 12:08 | -36.25977 | 146.94154 | 37377 ft | 454 kts | 52° |
| 2026-04-25 12:09 | -36.22216 | 147.00441 | 37381 ft | 454 kts | 52° |
| 2026-04-25 12:09 | -36.18447 | 147.06711 | 37381 ft | 454 kts | 52° |
| 2026-04-25 12:10 | -36.14668 | 147.12984 | 37381 ft | 454 kts | 52° |
| 2026-04-25 12:10 | -36.10896 | 147.19244 | 37389 ft | 454 kts | 52° |
| 2026-04-25 12:11 | -36.07122 | 147.25504 | 37382 ft | 454 kts | 52° |
| 2026-04-25 12:11 | -36.03345 | 147.31746 | 37388 ft | 454 kts | 52° |
| 2026-04-25 12:12 | -36.00205 | 147.36929 | 37395 ft | 454 kts | 52° |
| 2026-04-25 12:12 | -35.95782 | 147.44219 | 37403 ft | 453 kts | 52° |
| 2026-04-25 12:13 | -35.91996 | 147.50425 | 37406 ft | 453 kts | 52° |
| 2026-04-25 12:13 | -35.88213 | 147.56626 | 37404 ft | 452 kts | 52° |
| 2026-04-25 12:14 | -35.84458 | 147.62776 | 37412 ft | 452 kts | 52° |
| 2026-04-25 12:14 | -35.80681 | 147.68956 | 37417 ft | 451 kts | 52° |
| 2026-04-25 12:15 | -35.76904 | 147.75125 | 37416 ft | 451 kts | 52° |
| 2026-04-25 12:15 | -35.73121 | 147.81291 | 37412 ft | 450 kts | 52° |
| 2026-04-25 12:16 | -35.69342 | 147.87426 | 37418 ft | 450 kts | 52° |
| 2026-04-25 12:16 | -35.65561 | 147.93572 | 37425 ft | 450 kts | 52° |
| 2026-04-25 12:17 | -35.61793 | 147.99699 | 37424 ft | 450 kts | 52° |
| 2026-04-25 12:17 | -35.58006 | 148.05825 | 37428 ft | 449 kts | 52° |
| 2026-04-25 12:18 | -35.54247 | 148.11878 | 37429 ft | 449 kts | 52° |
| 2026-04-25 12:18 | -35.50458 | 148.17983 | 37422 ft | 449 kts | 52° |
| 2026-04-25 12:19 | -35.44765 | 148.27129 | 37424 ft | 449 kts | 52° |
| 2026-04-25 12:20 | -35.40970 | 148.33213 | 37424 ft | 449 kts | 52° |
| 2026-04-25 12:20 | -35.37177 | 148.39306 | 37423 ft | 449 kts | 52° |
| 2026-04-25 12:21 | -35.33382 | 148.45393 | 37417 ft | 449 kts | 52° |
| 2026-04-25 12:21 | -35.29575 | 148.51461 | 37428 ft | 449 kts | 52° |
| 2026-04-25 12:22 | -35.25771 | 148.57524 | 37420 ft | 449 kts | 52° |
| 2026-04-25 12:22 | -35.21961 | 148.63585 | 37426 ft | 449 kts | 52° |
| 2026-04-25 12:23 | -35.18151 | 148.69633 | 37418 ft | 449 kts | 53° |
| 2026-04-25 12:23 | -35.14339 | 148.75680 | 37431 ft | 449 kts | 52° |
| 2026-04-25 12:24 | -35.10520 | 148.81721 | 37436 ft | 449 kts | 53° |
| 2026-04-25 12:24 | -35.06700 | 148.87759 | 37427 ft | 449 kts | 53° |
| 2026-04-25 12:25 | -35.02884 | 148.93791 | 37430 ft | 449 kts | 53° |
| 2026-04-25 12:25 | -34.99079 | 148.99770 | 37430 ft | 449 kts | 53° |
| 2026-04-25 12:26 | -34.95243 | 149.05791 | 37434 ft | 449 kts | 53° |
| 2026-04-25 12:26 | -34.93329 | 149.08795 | 37207 ft | 449 kts | 53° |
| 2026-04-25 12:26 | -34.91416 | 149.11796 | 36947 ft | 448 kts | 53° |
| 2026-04-25 12:26 | -34.89496 | 149.14806 | 36691 ft | 449 kts | 53° |
| 2026-04-25 12:27 | -34.87589 | 149.17795 | 36361 ft | 445 kts | 53° |
| 2026-04-25 12:27 | -34.85692 | 149.20762 | 35874 ft | 444 kts | 53° |
| 2026-04-25 12:27 | -34.83798 | 149.23722 | 35391 ft | 442 kts | 53° |
| 2026-04-25 12:27 | -34.81914 | 149.26663 | 34904 ft | 440 kts | 53° |
| 2026-04-25 12:28 | -34.80034 | 149.29596 | 34407 ft | 439 kts | 53° |
| 2026-04-25 12:28 | -34.78159 | 149.32516 | 33868 ft | 437 kts | 53° |
| 2026-04-25 12:28 | -34.76299 | 149.35410 | 33372 ft | 433 kts | 53° |
| 2026-04-25 12:28 | -34.74468 | 149.38307 | 32887 ft | 430 kts | 56° |
| 2026-04-25 12:29 | -34.72952 | 149.41406 | 32404 ft | 425 kts | 63° |
| 2026-04-25 12:29 | -34.71580 | 149.44586 | 31921 ft | 423 kts | 63° |
| 2026-04-25 12:29 | -34.70211 | 149.47736 | 31453 ft | 420 kts | 63° |
| 2026-04-25 12:29 | -34.68846 | 149.50863 | 30985 ft | 418 kts | 63° |
| 2026-04-25 12:30 | -34.67488 | 149.53969 | 30527 ft | 415 kts | 63° |
| 2026-04-25 12:30 | -34.66154 | 149.57013 | 30024 ft | 413 kts | 63° |
| 2026-04-25 12:30 | -34.64814 | 149.60070 | 29596 ft | 408 kts | 63° |
| 2026-04-25 12:30 | -34.63486 | 149.63103 | 29158 ft | 405 kts | 63° |
| 2026-04-25 12:31 | -34.62170 | 149.66111 | 28743 ft | 401 kts | 63° |
| 2026-04-25 12:31 | -34.60864 | 149.69087 | 28313 ft | 398 kts | 63° |
| 2026-04-25 12:31 | -34.59567 | 149.72044 | 27901 ft | 396 kts | 63° |
| 2026-04-25 12:31 | -34.58274 | 149.74987 | 27488 ft | 394 kts | 63° |
| 2026-04-25 12:32 | -34.56986 | 149.77913 | 27077 ft | 392 kts | 63° |
| 2026-04-25 12:32 | -34.55701 | 149.80832 | 26672 ft | 391 kts | 63° |
| 2026-04-25 12:32 | -34.54427 | 149.83730 | 26250 ft | 389 kts | 63° |
| 2026-04-25 12:32 | -34.53156 | 149.86615 | 25818 ft | 388 kts | 63° |
| 2026-04-25 12:33 | -34.51881 | 149.89504 | 25388 ft | 387 kts | 63° |
| 2026-04-25 12:33 | -34.50609 | 149.92382 | 24942 ft | 387 kts | 63° |
| 2026-04-25 12:33 | -34.49343 | 149.95247 | 24481 ft | 386 kts | 63° |
| 2026-04-25 12:33 | -34.48075 | 149.98115 | 24027 ft | 386 kts | 63° |
| 2026-04-25 12:34 | -34.46810 | 150.00981 | 23504 ft | 385 kts | 62° |
| 2026-04-25 12:34 | -34.45549 | 150.03828 | 23038 ft | 382 kts | 62° |
| 2026-04-25 12:34 | -34.44297 | 150.06650 | 22574 ft | 379 kts | 62° |
| 2026-04-25 12:34 | -34.43471 | 150.08512 | 22266 ft | 377 kts | 62° |
| 2026-04-25 12:35 | -34.41833 | 150.12193 | 21646 ft | 373 kts | 62° |
| 2026-04-25 12:35 | -34.40605 | 150.14953 | 21187 ft | 370 kts | 62° |
| 2026-04-25 12:35 | -34.39391 | 150.17684 | 20729 ft | 367 kts | 62° |
| 2026-04-25 12:35 | -34.38188 | 150.20389 | 20272 ft | 364 kts | 62° |
| 2026-04-25 12:36 | -34.36990 | 150.23078 | 19822 ft | 361 kts | 62° |
| 2026-04-25 12:36 | -34.35801 | 150.25748 | 19371 ft | 359 kts | 62° |
| 2026-04-25 12:36 | -34.34620 | 150.28400 | 18926 ft | 356 kts | 62° |
| 2026-04-25 12:36 | -34.33447 | 150.31029 | 18437 ft | 354 kts | 62° |
| 2026-04-25 12:37 | -34.32282 | 150.33635 | 17977 ft | 351 kts | 62° |
| 2026-04-25 12:37 | -34.31126 | 150.36216 | 17533 ft | 347 kts | 62° |
| 2026-04-25 12:37 | -34.29983 | 150.38768 | 17092 ft | 344 kts | 62° |
| 2026-04-25 12:37 | -34.28850 | 150.41295 | 16668 ft | 340 kts | 62° |
| 2026-04-25 12:38 | -34.27724 | 150.43801 | 16251 ft | 338 kts | 62° |
| 2026-04-25 12:38 | -34.26610 | 150.46287 | 15815 ft | 335 kts | 62° |
| 2026-04-25 12:38 | -34.25506 | 150.48756 | 15393 ft | 333 kts | 62° |
| 2026-04-25 12:38 | -34.24407 | 150.51216 | 14973 ft | 331 kts | 62° |
| 2026-04-25 12:39 | -34.23315 | 150.53659 | 14546 ft | 330 kts | 62° |
| 2026-04-25 12:39 | -34.22226 | 150.56093 | 14117 ft | 329 kts | 62° |
| 2026-04-25 12:39 | -34.21140 | 150.58515 | 13668 ft | 327 kts | 62° |
| 2026-04-25 12:39 | -34.20063 | 150.60916 | 13255 ft | 324 kts | 62° |
| 2026-04-25 12:40 | -34.18993 | 150.63300 | 12845 ft | 321 kts | 62° |
| 2026-04-25 12:40 | -34.17931 | 150.65661 | 12430 ft | 319 kts | 62° |
| 2026-04-25 12:40 | -34.16873 | 150.68012 | 12030 ft | 317 kts | 62° |
| 2026-04-25 12:40 | -34.15826 | 150.70349 | 11610 ft | 315 kts | 62° |
| 2026-04-25 12:41 | -34.14806 | 150.72620 | 11425 ft | 306 kts | 62° |
| 2026-04-25 12:41 | -34.13807 | 150.74839 | 11052 ft | 297 kts | 62° |
| 2026-04-25 12:41 | -34.12826 | 150.77010 | 10448 ft | 292 kts | 62° |
| 2026-04-25 12:41 | -34.11859 | 150.79155 | 9776 ft | 289 kts | 62° |
| 2026-04-25 12:42 | -34.10899 | 150.81285 | 9353 ft | 287 kts | 62° |
| 2026-04-25 12:42 | -34.10578 | 150.81998 | 9251 ft | 286 kts | 62° |
| 2026-04-25 12:42 | -34.09001 | 150.85498 | 8657 ft | 284 kts | 62° |
| 2026-04-25 12:42 | -34.08072 | 150.87572 | 8349 ft | 280 kts | 62° |
| 2026-04-25 12:43 | -34.07149 | 150.89630 | 8052 ft | 278 kts | 62° |
| 2026-04-25 12:43 | -34.06231 | 150.91668 | 7766 ft | 275 kts | 62° |
| 2026-04-25 12:43 | -34.04408 | 150.95702 | 7204 ft | 272 kts | 62° |
| 2026-04-25 12:44 | -34.03593 | 150.97743 | 6933 ft | 270 kts | 73° |
| 2026-04-25 12:44 | -34.03378 | 150.99974 | 6641 ft | 269 kts | 95° |
| 2026-04-25 12:44 | -34.04999 | 151.03929 | 6060 ft | 270 kts | 133° |
| 2026-04-25 12:45 | -34.06299 | 151.05559 | 5767 ft | 270 kts | 133° |
| 2026-04-25 12:45 | -34.07706 | 151.07059 | 5481 ft | 271 kts | 146° |
| 2026-04-25 12:45 | -34.11237 | 151.08565 | 4921 ft | 274 kts | 168° |
| 2026-04-25 12:46 | -34.13095 | 151.09035 | 4633 ft | 271 kts | 167° |
| 2026-04-25 12:46 | -34.14907 | 151.09500 | 4364 ft | 268 kts | 166° |
| 2026-04-25 12:46 | -34.16719 | 151.09969 | 4151 ft | 263 kts | 166° |
| 2026-04-25 12:46 | -34.18468 | 151.10485 | 3946 ft | 255 kts | 156° |
| 2026-04-25 12:47 | -34.19925 | 151.11594 | 3729 ft | 245 kts | 131° |
| 2026-04-25 12:47 | -34.20840 | 151.13232 | 3593 ft | 228 kts | 107° |
| 2026-04-25 12:47 | -34.21150 | 151.15031 | 3464 ft | 213 kts | 85° |
| 2026-04-25 12:47 | -34.20920 | 151.16728 | 3334 ft | 198 kts | 65° |
| 2026-04-25 12:48 | -34.20283 | 151.18137 | 3205 ft | 187 kts | 51° |
| 2026-04-25 12:48 | -34.19548 | 151.19404 | 3105 ft | 182 kts | 52° |
| 2026-04-25 12:48 | -34.18847 | 151.20610 | 3049 ft | 168 kts | 48° |
| 2026-04-25 12:48 | -34.18058 | 151.21555 | 3002 ft | 152 kts | 36° |
| 2026-04-25 12:49 | -34.17214 | 151.22193 | 2995 ft | 138 kts | 23° |
| 2026-04-25 12:49 | -34.16339 | 151.22591 | 2997 ft | 133 kts | 15° |
| 2026-04-25 12:49 | -34.15425 | 151.22757 | 2998 ft | 132 kts | 356° |
| 2026-04-25 12:49 | -34.14514 | 151.22640 | 2998 ft | 132 kts | 354° |
| 2026-04-25 12:50 | -34.13606 | 151.22468 | 3005 ft | 132 kts | 352° |
| 2026-04-25 12:50 | -34.13010 | 151.22337 | 2998 ft | 131 kts | 351° |
| 2026-04-25 12:50 | -34.11808 | 151.22049 | 2970 ft | 133 kts | 351° |
| 2026-04-25 12:50 | -34.10930 | 151.21829 | 2888 ft | 131 kts | 351° |
| 2026-04-25 12:51 | -34.10046 | 151.21603 | 2730 ft | 129 kts | 350° |
| 2026-04-25 12:51 | -34.09453 | 151.21450 | 2616 ft | 129 kts | 351° |
| 2026-04-25 12:51 | -34.08578 | 151.21224 | 2454 ft | 128 kts | 350° |
| 2026-04-25 12:51 | -34.07707 | 151.20998 | 2282 ft | 129 kts | 350° |
| 2026-04-25 12:52 | -34.06835 | 151.20771 | 2112 ft | 128 kts | 350° |
| 2026-04-25 12:52 | -34.05966 | 151.20545 | 1942 ft | 128 kts | 350° |
| 2026-04-25 12:52 | -34.05096 | 151.20319 | 1769 ft | 127 kts | 349° |
| 2026-04-25 12:52 | -34.04233 | 151.20095 | 1601 ft | 127 kts | 349° |
| 2026-04-25 12:53 | -34.03384 | 151.19874 | 1431 ft | 127 kts | 349° |
| 2026-04-25 12:53 | -34.02518 | 151.19649 | 1261 ft | 127 kts | 349° |
| 2026-04-25 12:53 | -34.01658 | 151.19425 | 1096 ft | 125 kts | 349° |
| 2026-04-25 12:53 | -34.00799 | 151.19202 | 933 ft | 128 kts | 351° |
| 2026-04-25 12:54 | -33.99931 | 151.18977 | 752 ft | 129 kts | 346° |
| 2026-04-25 12:54 | -33.99059 | 151.18750 | 596 ft | 128 kts | 348° |
| 2026-04-25 12:54 | -33.98185 | 151.18524 | 424 ft | 129 kts | 347° |
| 2026-04-25 12:54 | -33.97310 | 151.18286 | 257 ft | 129 kts | 345° |
| 2026-04-25 12:55 | -33.96436 | 151.18068 | 85 ft | 128 kts | 345° |
| 2026-04-25 12:55 | -33.95873 | 151.17925 | 24 ft | 116 kts | 346° |
| 2026-04-25 12:55 | -33.95103 | 151.17720 | 19 ft | 52 kts | 348° |
| 2026-04-25 12:55 | -33.94834 | 151.17652 | 23 ft | 24 kts | 353° |
| 2026-04-25 12:56 | -33.94706 | 151.17645 | 24 ft | 18 kts | 357° |
| 2026-04-25 12:56 | -33.94580 | 151.17669 | 23 ft | 13 kts | 11° |
| 2026-04-25 12:56 | -33.94509 | 151.17686 | 24 ft | 12 kts | 13° |
| 2026-04-25 12:56 | -33.94431 | 151.17718 | 25 ft | 10 kts | 19° |
| 2026-04-25 12:57 | -33.94419 | 151.17723 | 25 ft | 2 kts | 19° |
| 2026-04-25 12:57 | -33.94411 | 151.17726 | 26 ft | 3 kts | 19° |
| 2026-04-25 12:57 | -33.94376 | 151.17740 | 24 ft | 3 kts | 18° |
| 2026-04-25 12:57 | -33.94336 | 151.17738 | 22 ft | 8 kts | 343° |
| 2026-04-25 12:58 | -33.94264 | 151.17712 | 21 ft | 13 kts | 345° |
| 2026-04-25 12:58 | -33.94162 | 151.17683 | 22 ft | 17 kts | 346° |
| 2026-04-25 12:58 | -33.94037 | 151.17646 | 21 ft | 21 kts | 347° |
| 2026-04-25 12:58 | -33.93881 | 151.17604 | 21 ft | 25 kts | 348° |
| 2026-04-25 12:59 | -33.93724 | 151.17566 | 18 ft | 14 kts | 356° |
| 2026-04-25 12:59 | -33.93635 | 151.17606 | 27 ft | 12 kts | 27° |
| 2026-04-25 12:59 | -33.93554 | 151.17604 | 28 ft | 14 kts | 346° |
| 2026-04-25 12:59 | -33.93446 | 151.17589 | 29 ft | 17 kts | 12° |
| 2026-04-25 13:00 | -33.93349 | 151.17584 | 30 ft | 13 kts | 347° |
| 2026-04-25 13:00 | -33.93287 | 151.17568 | 30 ft | 15 kts | 348° |
| 2026-04-25 13:00 | -33.93225 | 151.17551 | 30 ft | 4 kts | 348° |
| 2026-04-25 13:00 | -33.93205 | 151.17577 | 30 ft | 6 kts | 76° |
| 2026-04-25 13:01 | -33.93199 | 151.17616 | 30 ft | 1 kts | 81° |
| 2026-04-25 13:01 | -33.93198 | 151.17627 | 30 ft | 0 kts | 82° |
| 2026-04-25 13:01 | -33.93197 | 151.17629 | 30 ft | 0 kts | 82° |